ZSPD/PVG METAR and TAF weather

Enter ICAO airport designator
Station Type Date Time Source
ZSPD METAR 2020/08/15 11:00 UTC NOAA

ZSPD 151100Z 16005MPS CAVOK 29/24 Q1007 NOSIG


Station Type Date Time Source
ZSPD Decoded METAR 2020/08/15 11:00 UTC NOAA

Shanghai / Pudong, China (ZSPD) 31-07N 121-46E
Aug 15, 2020 - 07:00 AM EDT / 2020.08.15 1100 UTC
Wind: from the SSE (160 degrees) at 11 MPH (10 KT):0
Visibility: greater than 7 mile(s):0
Temperature: 84 F (29 C)
Dew Point: 75 F (24 C)
Relative Humidity: 74%
Pressure (altimeter): 29.74 in. Hg (1007 hPa)
ob: ZSPD 151100Z 16005MPS CAVOK 29/24 Q1007 NOSIG
cycle: 11

Station Type Date Time Source
ZSPD TAF 2020/08/15 12:03 UTC NOAA

TAF TAF ZSPD 150913Z 1512/1612 16005MPS CAVOK TX36/1606Z TN27/1520Z

Example: see airport list